sensor_id;sensor_type;location;lat;lon;timestamp;P1;durP1;ratioP1;P2;durP2;ratioP2
8411;SDS011;4243;49.296;11.348;2023-06-10T00:02:25;122.77;;;3.60;;
8411;SDS011;4243;49.296;11.348;2023-06-10T00:04:54;122.57;;;3.70;;
8411;SDS011;4243;49.296;11.348;2023-06-10T00:07:21;121.97;;;3.80;;
8411;SDS011;4243;49.296;11.348;2023-06-10T00:09:49;122.77;;;4.13;;
8411;SDS011;4243;49.296;11.348;2023-06-10T00:12:17;122.17;;;3.90;;
8411;SDS011;4243;49.296;11.348;2023-06-10T00:14:46;122.87;;;4.00;;
8411;SDS011;4243;49.296;11.348;2023-06-10T00:17:16;123.47;;;4.17;;
8411;SDS011;4243;49.296;11.348;2023-06-10T00:19:44;122.87;;;4.10;;
8411;SDS011;4243;49.296;11.348;2023-06-10T00:22:13;122.70;;;3.80;;
8411;SDS011;4243;49.296;11.348;2023-06-10T00:24:40;122.47;;;3.77;;
8411;SDS011;4243;49.296;11.348;2023-06-10T00:27:08;123.00;;;4.00;;
8411;SDS011;4243;49.296;11.348;2023-06-10T00:29:35;123.30;;;3.77;;
8411;SDS011;4243;49.296;11.348;2023-06-10T00:32:05;122.87;;;3.50;;
8411;SDS011;4243;49.296;11.348;2023-06-10T00:34:34;122.77;;;3.23;;
8411;SDS011;4243;49.296;11.348;2023-06-10T00:37:02;122.27;;;3.13;;
8411;SDS011;4243;49.296;11.348;2023-06-10T00:39:29;122.57;;;3.20;;
8411;SDS011;4243;49.296;11.348;2023-06-10T00:41:56;123.47;;;3.30;;
8411;SDS011;4243;49.296;11.348;2023-06-10T00:44:23;123.13;;;3.40;;
8411;SDS011;4243;49.296;11.348;2023-06-10T00:46:50;122.93;;;3.00;;
8411;SDS011;4243;49.296;11.348;2023-06-10T00:49:21;122.67;;;3.20;;
8411;SDS011;4243;49.296;11.348;2023-06-10T00:51:48;123.03;;;3.40;;
8411;SDS011;4243;49.296;11.348;2023-06-10T00:54:18;123.07;;;3.40;;
8411;SDS011;4243;49.296;11.348;2023-06-10T00:56:46;123.20;;;3.30;;
8411;SDS011;4243;49.296;11.348;2023-06-10T00:59:14;123.27;;;3.40;;
8411;SDS011;4243;49.296;11.348;2023-06-10T01:01:42;122.87;;;3.27;;
8411;SDS011;4243;49.296;11.348;2023-06-10T01:04:10;123.97;;;3.30;;
8411;SDS011;4243;49.296;11.348;2023-06-10T01:09:33;123.27;;;3.13;;
8411;SDS011;4243;49.296;11.348;2023-06-10T01:12:26;123.47;;;3.23;;
8411;SDS011;4243;49.296;11.348;2023-06-10T01:15:25;124.20;;;3.50;;
8411;SDS011;4243;49.296;11.348;2023-06-10T01:17:56;123.57;;;3.30;;
8411;SDS011;4243;49.296;11.348;2023-06-10T01:20:32;123.53;;;3.07;;
8411;SDS011;4243;49.296;11.348;2023-06-10T01:23:00;123.90;;;3.10;;
8411;SDS011;4243;49.296;11.348;2023-06-10T01:25:29;123.73;;;3.07;;
8411;SDS011;4243;49.296;11.348;2023-06-10T01:28:04;123.57;;;3.00;;
8411;SDS011;4243;49.296;11.348;2023-06-10T01:31:15;123.70;;;3.00;;
8411;SDS011;4243;49.296;11.348;2023-06-10T01:33:52;124.00;;;2.83;;
8411;SDS011;4243;49.296;11.348;2023-06-10T01:36:22;123.67;;;2.80;;
8411;SDS011;4243;49.296;11.348;2023-06-10T01:38:50;123.47;;;2.93;;
8411;SDS011;4243;49.296;11.348;2023-06-10T01:41:20;123.47;;;2.90;;
8411;SDS011;4243;49.296;11.348;2023-06-10T01:43:49;123.67;;;3.20;;
8411;SDS011;4243;49.296;11.348;2023-06-10T01:46:16;123.20;;;3.37;;
8411;SDS011;4243;49.296;11.348;2023-06-10T01:48:46;122.67;;;3.47;;
8411;SDS011;4243;49.296;11.348;2023-06-10T01:51:14;123.77;;;3.10;;
8411;SDS011;4243;49.296;11.348;2023-06-10T01:53:42;123.20;;;3.07;;
8411;SDS011;4243;49.296;11.348;2023-06-10T01:56:10;123.47;;;3.10;;
8411;SDS011;4243;49.296;11.348;2023-06-10T01:58:43;123.23;;;3.20;;
8411;SDS011;4243;49.296;11.348;2023-06-10T02:01:10;123.17;;;3.57;;
8411;SDS011;4243;49.296;11.348;2023-06-10T02:03:38;123.53;;;3.50;;
8411;SDS011;4243;49.296;11.348;2023-06-10T02:06:05;123.20;;;3.20;;
8411;SDS011;4243;49.296;11.348;2023-06-10T02:08:33;123.07;;;3.30;;
8411;SDS011;4243;49.296;11.348;2023-06-10T02:11:00;123.40;;;3.40;;
8411;SDS011;4243;49.296;11.348;2023-06-10T02:13:28;123.07;;;3.40;;
8411;SDS011;4243;49.296;11.348;2023-06-10T02:15:56;123.70;;;3.30;;
8411;SDS011;4243;49.296;11.348;2023-06-10T02:18:28;123.63;;;3.17;;
8411;SDS011;4243;49.296;11.348;2023-06-10T02:20:55;124.07;;;3.40;;
8411;SDS011;4243;49.296;11.348;2023-06-10T02:23:25;123.60;;;3.23;;
8411;SDS011;4243;49.296;11.348;2023-06-10T02:25:52;123.30;;;3.20;;
8411;SDS011;4243;49.296;11.348;2023-06-10T02:28:20;123.73;;;3.10;;
8411;SDS011;4243;49.296;11.348;2023-06-10T02:30:47;123.43;;;3.20;;
8411;SDS011;4243;49.296;11.348;2023-06-10T02:33:15;123.60;;;3.33;;
8411;SDS011;4243;49.296;11.348;2023-06-10T02:35:43;123.87;;;3.37;;
8411;SDS011;4243;49.296;11.348;2023-06-10T02:38:11;123.90;;;4.20;;
8411;SDS011;4243;49.296;11.348;2023-06-10T02:40:39;123.57;;;3.63;;
8411;SDS011;4243;49.296;11.348;2023-06-10T02:43:06;123.37;;;3.50;;
8411;SDS011;4243;49.296;11.348;2023-06-10T02:45:34;123.80;;;3.50;;
8411;SDS011;4243;49.296;11.348;2023-06-10T02:48:03;124.03;;;3.43;;
8411;SDS011;4243;49.296;11.348;2023-06-10T02:50:32;124.40;;;3.63;;
8411;SDS011;4243;49.296;11.348;2023-06-10T02:53:16;123.57;;;3.43;;
8411;SDS011;4243;49.296;11.348;2023-06-10T02:55:49;124.10;;;3.47;;
8411;SDS011;4243;49.296;11.348;2023-06-10T02:58:18;124.00;;;4.00;;
8411;SDS011;4243;49.296;11.348;2023-06-10T03:00:47;124.00;;;3.40;;
8411;SDS011;4243;49.296;11.348;2023-06-10T03:03:16;123.90;;;3.13;;
8411;SDS011;4243;49.296;11.348;2023-06-10T03:05:55;123.47;;;3.23;;
8411;SDS011;4243;49.296;11.348;2023-06-10T03:08:25;123.53;;;3.27;;
8411;SDS011;4243;49.296;11.348;2023-06-10T03:10:54;123.47;;;3.40;;
8411;SDS011;4243;49.296;11.348;2023-06-10T03:13:21;124.27;;;3.53;;
8411;SDS011;4243;49.296;11.348;2023-06-10T03:15:50;123.97;;;3.10;;
8411;SDS011;4243;49.296;11.348;2023-06-10T03:18:20;124.37;;;3.27;;
8411;SDS011;4243;49.296;11.348;2023-06-10T03:20:49;124.20;;;3.30;;
8411;SDS011;4243;49.296;11.348;2023-06-10T03:23:18;124.20;;;3.23;;
8411;SDS011;4243;49.296;11.348;2023-06-10T03:25:45;124.30;;;3.23;;
8411;SDS011;4243;49.296;11.348;2023-06-10T03:28:16;124.00;;;3.33;;
8411;SDS011;4243;49.296;11.348;2023-06-10T03:30:44;123.63;;;3.33;;
8411;SDS011;4243;49.296;11.348;2023-06-10T03:33:12;123.70;;;3.30;;
8411;SDS011;4243;49.296;11.348;2023-06-10T03:35:41;124.30;;;3.30;;
8411;SDS011;4243;49.296;11.348;2023-06-10T03:38:08;123.57;;;3.17;;
8411;SDS011;4243;49.296;11.348;2023-06-10T03:40:35;124.30;;;3.17;;
8411;SDS011;4243;49.296;11.348;2023-06-10T03:43:04;124.67;;;3.30;;
8411;SDS011;4243;49.296;11.348;2023-06-10T03:45:32;124.30;;;3.27;;
8411;SDS011;4243;49.296;11.348;2023-06-10T03:48:01;124.27;;;3.30;;
8411;SDS011;4243;49.296;11.348;2023-06-10T03:50:39;124.27;;;3.27;;
8411;SDS011;4243;49.296;11.348;2023-06-10T03:53:06;124.47;;;3.17;;
8411;SDS011;4243;49.296;11.348;2023-06-10T03:55:35;124.07;;;3.20;;
8411;SDS011;4243;49.296;11.348;2023-06-10T03:58:03;124.40;;;3.20;;
8411;SDS011;4243;49.296;11.348;2023-06-10T04:00:31;124.80;;;3.20;;
8411;SDS011;4243;49.296;11.348;2023-06-10T04:03:08;123.97;;;2.90;;
8411;SDS011;4243;49.296;11.348;2023-06-10T04:05:44;124.70;;;3.03;;
8411;SDS011;4243;49.296;11.348;2023-06-10T04:08:12;123.60;;;2.97;;
8411;SDS011;4243;49.296;11.348;2023-06-10T04:10:39;123.87;;;2.97;;
8411;SDS011;4243;49.296;11.348;2023-06-10T04:13:07;123.60;;;2.90;;
8411;SDS011;4243;49.296;11.348;2023-06-10T04:15:41;124.27;;;3.00;;
8411;SDS011;4243;49.296;11.348;2023-06-10T04:18:13;124.47;;;3.07;;
8411;SDS011;4243;49.296;11.348;2023-06-10T04:20:42;123.97;;;3.17;;
8411;SDS011;4243;49.296;11.348;2023-06-10T04:23:11;124.10;;;3.07;;
8411;SDS011;4243;49.296;11.348;2023-06-10T04:25:40;124.03;;;3.27;;
8411;SDS011;4243;49.296;11.348;2023-06-10T04:28:08;124.13;;;3.30;;
8411;SDS011;4243;49.296;11.348;2023-06-10T04:30:36;123.97;;;3.10;;
8411;SDS011;4243;49.296;11.348;2023-06-10T04:33:05;124.20;;;3.40;;
8411;SDS011;4243;49.296;11.348;2023-06-10T04:35:36;123.47;;;2.97;;
8411;SDS011;4243;49.296;11.348;2023-06-10T04:38:06;123.67;;;3.20;;
8411;SDS011;4243;49.296;11.348;2023-06-10T04:40:33;123.87;;;3.30;;
8411;SDS011;4243;49.296;11.348;2023-06-10T04:43:02;123.80;;;3.13;;
8411;SDS011;4243;49.296;11.348;2023-06-10T04:45:31;123.80;;;3.40;;
8411;SDS011;4243;49.296;11.348;2023-06-10T04:47:59;124.00;;;3.47;;
8411;SDS011;4243;49.296;11.348;2023-06-10T04:50:26;123.27;;;3.53;;
8411;SDS011;4243;49.296;11.348;2023-06-10T04:52:54;123.40;;;3.53;;
8411;SDS011;4243;49.296;11.348;2023-06-10T04:55:23;123.50;;;3.70;;
8411;SDS011;4243;49.296;11.348;2023-06-10T04:57:51;123.10;;;3.97;;
8411;SDS011;4243;49.296;11.348;2023-06-10T05:00:18;123.20;;;4.40;;
8411;SDS011;4243;49.296;11.348;2023-06-10T05:02:46;123.47;;;4.27;;
8411;SDS011;4243;49.296;11.348;2023-06-10T05:05:18;122.80;;;4.10;;
8411;SDS011;4243;49.296;11.348;2023-06-10T05:07:45;122.50;;;4.00;;
8411;SDS011;4243;49.296;11.348;2023-06-10T05:10:13;122.43;;;3.80;;
8411;SDS011;4243;49.296;11.348;2023-06-10T05:12:41;121.60;;;3.67;;
8411;SDS011;4243;49.296;11.348;2023-06-10T05:15:09;121.80;;;3.43;;
8411;SDS011;4243;49.296;11.348;2023-06-10T05:17:37;122.57;;;4.00;;
8411;SDS011;4243;49.296;11.348;2023-06-10T05:20:04;123.97;;;4.80;;
8411;SDS011;4243;49.296;11.348;2023-06-10T05:22:32;122.47;;;4.57;;
8411;SDS011;4243;49.296;11.348;2023-06-10T05:25:00;121.87;;;4.50;;
8411;SDS011;4243;49.296;11.348;2023-06-10T05:27:29;124.67;;;4.47;;
8411;SDS011;4243;49.296;11.348;2023-06-10T05:29:56;121.70;;;3.93;;
8411;SDS011;4243;49.296;11.348;2023-06-10T05:32:23;121.47;;;3.57;;
8411;SDS011;4243;49.296;11.348;2023-06-10T05:34:51;121.43;;;3.67;;
8411;SDS011;4243;49.296;11.348;2023-06-10T05:37:18;120.77;;;3.17;;
8411;SDS011;4243;49.296;11.348;2023-06-10T05:39:45;121.53;;;3.60;;
8411;SDS011;4243;49.296;11.348;2023-06-10T05:42:13;120.70;;;3.17;;
8411;SDS011;4243;49.296;11.348;2023-06-10T05:44:40;121.20;;;3.17;;
8411;SDS011;4243;49.296;11.348;2023-06-10T05:47:08;121.00;;;2.87;;
8411;SDS011;4243;49.296;11.348;2023-06-10T05:49:35;120.00;;;2.73;;
8411;SDS011;4243;49.296;11.348;2023-06-10T05:52:02;120.33;;;2.97;;
8411;SDS011;4243;49.296;11.348;2023-06-10T05:54:30;119.77;;;3.30;;
8411;SDS011;4243;49.296;11.348;2023-06-10T05:56:57;120.00;;;3.47;;
8411;SDS011;4243;49.296;11.348;2023-06-10T05:59:25;119.87;;;4.43;;
8411;SDS011;4243;49.296;11.348;2023-06-10T06:01:52;121.27;;;6.77;;
8411;SDS011;4243;49.296;11.348;2023-06-10T06:04:20;118.93;;;5.93;;
8411;SDS011;4243;49.296;11.348;2023-06-10T06:06:47;119.73;;;4.80;;
8411;SDS011;4243;49.296;11.348;2023-06-10T06:09:15;118.37;;;4.90;;
8411;SDS011;4243;49.296;11.348;2023-06-10T06:11:42;119.00;;;4.17;;
8411;SDS011;4243;49.296;11.348;2023-06-10T06:14:09;119.03;;;4.23;;
8411;SDS011;4243;49.296;11.348;2023-06-10T06:16:37;118.07;;;3.40;;
8411;SDS011;4243;49.296;11.348;2023-06-10T06:19:05;117.70;;;3.40;;
8411;SDS011;4243;49.296;11.348;2023-06-10T06:21:32;119.03;;;3.70;;
8411;SDS011;4243;49.296;11.348;2023-06-10T06:24:00;117.70;;;3.53;;
8411;SDS011;4243;49.296;11.348;2023-06-10T06:26:28;118.20;;;3.77;;
8411;SDS011;4243;49.296;11.348;2023-06-10T06:28:55;117.00;;;3.67;;
8411;SDS011;4243;49.296;11.348;2023-06-10T06:31:23;117.77;;;3.80;;
8411;SDS011;4243;49.296;11.348;2023-06-10T06:33:50;117.60;;;3.73;;
8411;SDS011;4243;49.296;11.348;2023-06-10T06:36:17;117.60;;;4.00;;
8411;SDS011;4243;49.296;11.348;2023-06-10T06:38:45;117.80;;;4.80;;
8411;SDS011;4243;49.296;11.348;2023-06-10T06:41:13;118.03;;;4.83;;
8411;SDS011;4243;49.296;11.348;2023-06-10T06:43:40;117.53;;;4.90;;
8411;SDS011;4243;49.296;11.348;2023-06-10T06:46:22;116.70;;;4.83;;
8411;SDS011;4243;49.296;11.348;2023-06-10T06:48:50;116.80;;;3.70;;
8411;SDS011;4243;49.296;11.348;2023-06-10T06:51:18;116.87;;;3.50;;
8411;SDS011;4243;49.296;11.348;2023-06-10T06:53:45;116.00;;;3.10;;
8411;SDS011;4243;49.296;11.348;2023-06-10T06:56:13;116.10;;;2.60;;
8411;SDS011;4243;49.296;11.348;2023-06-10T06:58:41;115.97;;;2.53;;
8411;SDS011;4243;49.296;11.348;2023-06-10T07:01:08;115.20;;;2.40;;
8411;SDS011;4243;49.296;11.348;2023-06-10T07:03:36;115.20;;;2.60;;
8411;SDS011;4243;49.296;11.348;2023-06-10T07:06:03;115.97;;;2.90;;
8411;SDS011;4243;49.296;11.348;2023-06-10T07:08:31;116.20;;;3.80;;
8411;SDS011;4243;49.296;11.348;2023-06-10T07:10:58;116.37;;;4.00;;
8411;SDS011;4243;49.296;11.348;2023-06-10T07:13:26;117.07;;;4.87;;
8411;SDS011;4243;49.296;11.348;2023-06-10T07:15:53;116.47;;;4.63;;
8411;SDS011;4243;49.296;11.348;2023-06-10T07:18:20;116.60;;;5.80;;
8411;SDS011;4243;49.296;11.348;2023-06-10T07:20:47;117.07;;;5.40;;
8411;SDS011;4243;49.296;11.348;2023-06-10T07:23:17;117.87;;;6.87;;
8411;SDS011;4243;49.296;11.348;2023-06-10T07:25:44;115.37;;;7.10;;
8411;SDS011;4243;49.296;11.348;2023-06-10T07:28:11;117.70;;;6.80;;
8411;SDS011;4243;49.296;11.348;2023-06-10T07:30:39;116.87;;;6.40;;
8411;SDS011;4243;49.296;11.348;2023-06-10T07:33:07;117.67;;;6.87;;
8411;SDS011;4243;49.296;11.348;2023-06-10T07:35:36;117.70;;;7.20;;
8411;SDS011;4243;49.296;11.348;2023-06-10T07:38:03;117.30;;;7.70;;
8411;SDS011;4243;49.296;11.348;2023-06-10T07:40:31;117.27;;;8.30;;
8411;SDS011;4243;49.296;11.348;2023-06-10T07:43:00;117.83;;;9.80;;
8411;SDS011;4243;49.296;11.348;2023-06-10T07:45:28;120.00;;;12.00;;
8411;SDS011;4243;49.296;11.348;2023-06-10T07:47:55;119.97;;;12.60;;
8411;SDS011;4243;49.296;11.348;2023-06-10T07:50:22;120.90;;;15.07;;
8411;SDS011;4243;49.296;11.348;2023-06-10T07:52:49;119.37;;;11.50;;
8411;SDS011;4243;49.296;11.348;2023-06-10T07:55:17;116.67;;;8.10;;
8411;SDS011;4243;49.296;11.348;2023-06-10T07:57:44;115.87;;;6.70;;
8411;SDS011;4243;49.296;11.348;2023-06-10T08:03:36;112.87;;;3.00;;
8411;SDS011;4243;49.296;11.348;2023-06-10T08:06:03;111.73;;;2.07;;
8411;SDS011;4243;49.296;11.348;2023-06-10T08:08:32;111.57;;;2.27;;
8411;SDS011;4243;49.296;11.348;2023-06-10T08:11:00;111.43;;;2.80;;
8411;SDS011;4243;49.296;11.348;2023-06-10T08:13:28;111.70;;;3.33;;
8411;SDS011;4243;49.296;11.348;2023-06-10T08:15:55;112.27;;;5.50;;
8411;SDS011;4243;49.296;11.348;2023-06-10T08:18:23;112.10;;;4.90;;
8411;SDS011;4243;49.296;11.348;2023-06-10T08:20:50;111.37;;;4.00;;
8411;SDS011;4243;49.296;11.348;2023-06-10T08:23:18;111.87;;;4.40;;
8411;SDS011;4243;49.296;11.348;2023-06-10T08:25:46;112.37;;;5.63;;
8411;SDS011;4243;49.296;11.348;2023-06-10T08:28:13;112.10;;;5.80;;
8411;SDS011;4243;49.296;11.348;2023-06-10T08:30:40;112.80;;;6.90;;
8411;SDS011;4243;49.296;11.348;2023-06-10T08:33:07;112.47;;;5.87;;
8411;SDS011;4243;49.296;11.348;2023-06-10T08:35:35;112.27;;;5.40;;
8411;SDS011;4243;49.296;11.348;2023-06-10T08:38:02;112.10;;;6.13;;
8411;SDS011;4243;49.296;11.348;2023-06-10T08:40:29;111.07;;;6.13;;
8411;SDS011;4243;49.296;11.348;2023-06-10T08:45:37;109.20;;;3.53;;
8411;SDS011;4243;49.296;11.348;2023-06-10T08:48:06;108.10;;;1.70;;
8411;SDS011;4243;49.296;11.348;2023-06-10T08:50:37;106.67;;;1.30;;
8411;SDS011;4243;49.296;11.348;2023-06-10T08:53:06;106.60;;;1.50;;
8411;SDS011;4243;49.296;11.348;2023-06-10T08:55:38;106.27;;;1.27;;
8411;SDS011;4243;49.296;11.348;2023-06-10T08:58:08;106.77;;;1.40;;
8411;SDS011;4243;49.296;11.348;2023-06-10T09:00:36;107.60;;;1.60;;
8411;SDS011;4243;49.296;11.348;2023-06-10T09:03:04;107.87;;;1.83;;
8411;SDS011;4243;49.296;11.348;2023-06-10T09:05:35;107.50;;;1.57;;
8411;SDS011;4243;49.296;11.348;2023-06-10T09:08:03;107.47;;;1.53;;
8411;SDS011;4243;49.296;11.348;2023-06-10T09:10:33;108.07;;;1.60;;
8411;SDS011;4243;49.296;11.348;2023-06-10T09:13:01;108.60;;;1.70;;
8411;SDS011;4243;49.296;11.348;2023-06-10T09:15:28;109.23;;;2.53;;
8411;SDS011;4243;49.296;11.348;2023-06-10T09:17:55;110.57;;;3.23;;
8411;SDS011;4243;49.296;11.348;2023-06-10T09:20:23;110.27;;;2.70;;
8411;SDS011;4243;49.296;11.348;2023-06-10T09:22:50;110.77;;;1.90;;
8411;SDS011;4243;49.296;11.348;2023-06-10T09:25:18;111.37;;;2.00;;
8411;SDS011;4243;49.296;11.348;2023-06-10T09:28:41;111.73;;;2.80;;
8411;SDS011;4243;49.296;11.348;2023-06-10T09:31:11;112.90;;;3.87;;
8411;SDS011;4243;49.296;11.348;2023-06-10T09:33:38;113.07;;;4.50;;
8411;SDS011;4243;49.296;11.348;2023-06-10T09:36:06;113.10;;;4.70;;
8411;SDS011;4243;49.296;11.348;2023-06-10T09:38:34;112.57;;;4.23;;
8411;SDS011;4243;49.296;11.348;2023-06-10T09:41:02;113.27;;;5.33;;
8411;SDS011;4243;49.296;11.348;2023-06-10T09:43:39;113.03;;;4.73;;
8411;SDS011;4243;49.296;11.348;2023-06-10T09:46:17;112.20;;;4.43;;
8411;SDS011;4243;49.296;11.348;2023-06-10T09:48:47;112.50;;;4.80;;
8411;SDS011;4243;49.296;11.348;2023-06-10T09:51:15;113.17;;;4.60;;
8411;SDS011;4243;49.296;11.348;2023-06-10T09:53:47;112.90;;;4.67;;
8411;SDS011;4243;49.296;11.348;2023-06-10T09:56:17;113.30;;;4.30;;
8411;SDS011;4243;49.296;11.348;2023-06-10T09:58:45;113.80;;;4.87;;
8411;SDS011;4243;49.296;11.348;2023-06-10T10:01:13;114.00;;;5.97;;
8411;SDS011;4243;49.296;11.348;2023-06-10T10:03:43;112.10;;;3.20;;
8411;SDS011;4243;49.296;11.348;2023-06-10T10:06:17;110.77;;;2.90;;
8411;SDS011;4243;49.296;11.348;2023-06-10T10:08:48;111.17;;;2.70;;
8411;SDS011;4243;49.296;11.348;2023-06-10T10:11:17;111.17;;;2.70;;
8411;SDS011;4243;49.296;11.348;2023-06-10T10:13:49;110.07;;;2.30;;
8411;SDS011;4243;49.296;11.348;2023-06-10T10:16:24;110.27;;;1.80;;
8411;SDS011;4243;49.296;11.348;2023-06-10T10:19:07;110.60;;;1.80;;
8411;SDS011;4243;49.296;11.348;2023-06-10T10:21:53;110.87;;;2.30;;
8411;SDS011;4243;49.296;11.348;2023-06-10T10:24:41;112.47;;;4.40;;
8411;SDS011;4243;49.296;11.348;2023-06-10T10:27:33;112.47;;;4.47;;
8411;SDS011;4243;49.296;11.348;2023-06-10T10:30:18;109.57;;;1.67;;
8411;SDS011;4243;49.296;11.348;2023-06-10T10:35:28;108.67;;;1.50;;
8411;SDS011;4243;49.296;11.348;2023-06-10T10:37:56;109.07;;;1.60;;
8411;SDS011;4243;49.296;11.348;2023-06-10T10:40:24;108.30;;;1.80;;
8411;SDS011;4243;49.296;11.348;2023-06-10T10:42:56;107.00;;;1.60;;
8411;SDS011;4243;49.296;11.348;2023-06-10T10:45:27;107.30;;;1.67;;
8411;SDS011;4243;49.296;11.348;2023-06-10T10:47:55;107.70;;;1.87;;
8411;SDS011;4243;49.296;11.348;2023-06-10T10:50:23;107.70;;;1.60;;
8411;SDS011;4243;49.296;11.348;2023-06-10T10:53:03;108.57;;;1.83;;
8411;SDS011;4243;49.296;11.348;2023-06-10T10:55:32;109.17;;;3.13;;
8411;SDS011;4243;49.296;11.348;2023-06-10T11:00:37;109.97;;;3.67;;
8411;SDS011;4243;49.296;11.348;2023-06-10T11:03:15;108.50;;;2.97;;
8411;SDS011;4243;49.296;11.348;2023-06-10T11:05:45;108.70;;;2.10;;
8411;SDS011;4243;49.296;11.348;2023-06-10T11:08:16;106.17;;;1.40;;
8411;SDS011;4243;49.296;11.348;2023-06-10T11:11:18;107.00;;;4.50;;
8411;SDS011;4243;49.296;11.348;2023-06-10T11:16:28;109.10;;;12.03;;
8411;SDS011;4243;49.296;11.348;2023-06-10T11:18:56;106.47;;;7.80;;
8411;SDS011;4243;49.296;11.348;2023-06-10T11:21:23;105.13;;;6.97;;
8411;SDS011;4243;49.296;11.348;2023-06-10T11:23:57;104.77;;;7.10;;
8411;SDS011;4243;49.296;11.348;2023-06-10T11:31:28;104.80;;;4.10;;
8411;SDS011;4243;49.296;11.348;2023-06-10T11:34:06;103.23;;;3.87;;
8411;SDS011;4243;49.296;11.348;2023-06-10T11:36:36;103.87;;;3.40;;
8411;SDS011;4243;49.296;11.348;2023-06-10T11:39:07;104.63;;;2.73;;
8411;SDS011;4243;49.296;11.348;2023-06-10T11:41:35;104.00;;;2.37;;
8411;SDS011;4243;49.296;11.348;2023-06-10T11:44:12;103.97;;;2.10;;
8411;SDS011;4243;49.296;11.348;2023-06-10T11:46:45;103.87;;;1.97;;
8411;SDS011;4243;49.296;11.348;2023-06-10T11:49:16;104.17;;;1.97;;
8411;SDS011;4243;49.296;11.348;2023-06-10T11:51:44;105.00;;;2.53;;
8411;SDS011;4243;49.296;11.348;2023-06-10T11:54:17;104.10;;;2.33;;
8411;SDS011;4243;49.296;11.348;2023-06-10T11:56:45;104.03;;;2.63;;
8411;SDS011;4243;49.296;11.348;2023-06-10T11:59:15;103.67;;;2.43;;
8411;SDS011;4243;49.296;11.348;2023-06-10T12:01:44;103.37;;;2.63;;
8411;SDS011;4243;49.296;11.348;2023-06-10T12:04:13;103.37;;;3.53;;
8411;SDS011;4243;49.296;11.348;2023-06-10T12:06:45;103.07;;;3.50;;
8411;SDS011;4243;49.296;11.348;2023-06-10T12:20:02;109.30;;;7.30;;
8411;SDS011;4243;49.296;11.348;2023-06-10T12:22:36;110.33;;;6.87;;
8411;SDS011;4243;49.296;11.348;2023-06-10T12:25:08;113.10;;;9.60;;
8411;SDS011;4243;49.296;11.348;2023-06-10T12:27:39;112.17;;;7.67;;
8411;SDS011;4243;49.296;11.348;2023-06-10T12:30:24;111.70;;;7.37;;
8411;SDS011;4243;49.296;11.348;2023-06-10T12:32:53;111.07;;;6.60;;
8411;SDS011;4243;49.296;11.348;2023-06-10T12:35:22;111.57;;;7.37;;
8411;SDS011;4243;49.296;11.348;2023-06-10T12:40:34;110.67;;;5.87;;
8411;SDS011;4243;49.296;11.348;2023-06-10T12:43:09;109.87;;;6.10;;
8411;SDS011;4243;49.296;11.348;2023-06-10T12:45:38;110.77;;;5.83;;
8411;SDS011;4243;49.296;11.348;2023-06-10T12:48:10;111.47;;;5.17;;
8411;SDS011;4243;49.296;11.348;2023-06-10T12:50:44;110.57;;;3.17;;
8411;SDS011;4243;49.296;11.348;2023-06-10T12:53:17;111.57;;;2.80;;
8411;SDS011;4243;49.296;11.348;2023-06-10T12:55:46;111.50;;;1.97;;
8411;SDS011;4243;49.296;11.348;2023-06-10T12:58:13;111.47;;;1.63;;
8411;SDS011;4243;49.296;11.348;2023-06-10T13:00:41;112.17;;;1.80;;
8411;SDS011;4243;49.296;11.348;2023-06-10T13:03:09;112.87;;;2.00;;
8411;SDS011;4243;49.296;11.348;2023-06-10T13:05:37;112.70;;;2.30;;
8411;SDS011;4243;49.296;11.348;2023-06-10T13:08:06;113.87;;;2.87;;
8411;SDS011;4243;49.296;11.348;2023-06-10T13:10:36;113.87;;;3.13;;
8411;SDS011;4243;49.296;11.348;2023-06-10T13:13:04;113.87;;;3.90;;
8411;SDS011;4243;49.296;11.348;2023-06-10T13:15:32;114.97;;;4.27;;
8411;SDS011;4243;49.296;11.348;2023-06-10T13:18:07;114.87;;;3.73;;
8411;SDS011;4243;49.296;11.348;2023-06-10T13:20:35;115.00;;;4.40;;
8411;SDS011;4243;49.296;11.348;2023-06-10T13:23:03;114.07;;;4.20;;
8411;SDS011;4243;49.296;11.348;2023-06-10T13:25:30;115.17;;;4.27;;
8411;SDS011;4243;49.296;11.348;2023-06-10T13:27:58;113.80;;;3.40;;
8411;SDS011;4243;49.296;11.348;2023-06-10T13:30:26;114.67;;;3.50;;
8411;SDS011;4243;49.296;11.348;2023-06-10T13:32:53;114.40;;;3.30;;
8411;SDS011;4243;49.296;11.348;2023-06-10T13:35:21;114.60;;;3.40;;
8411;SDS011;4243;49.296;11.348;2023-06-10T13:37:48;115.47;;;3.73;;
8411;SDS011;4243;49.296;11.348;2023-06-10T13:40:15;114.87;;;3.17;;
8411;SDS011;4243;49.296;11.348;2023-06-10T13:42:45;114.40;;;3.43;;
8411;SDS011;4243;49.296;11.348;2023-06-10T13:45:16;113.87;;;3.07;;
8411;SDS011;4243;49.296;11.348;2023-06-10T13:47:44;112.57;;;2.70;;
8411;SDS011;4243;49.296;11.348;2023-06-10T13:50:11;111.40;;;2.33;;
8411;SDS011;4243;49.296;11.348;2023-06-10T13:52:39;110.53;;;2.57;;
8411;SDS011;4243;49.296;11.348;2023-06-10T13:55:07;109.77;;;2.20;;
8411;SDS011;4243;49.296;11.348;2023-06-10T13:57:35;109.27;;;1.93;;
8411;SDS011;4243;49.296;11.348;2023-06-10T14:00:03;110.27;;;2.50;;
8411;SDS011;4243;49.296;11.348;2023-06-10T14:02:31;112.10;;;3.33;;
8411;SDS011;4243;49.296;11.348;2023-06-10T14:04:59;112.87;;;2.73;;
8411;SDS011;4243;49.296;11.348;2023-06-10T14:07:27;115.27;;;4.10;;
8411;SDS011;4243;49.296;11.348;2023-06-10T14:09:55;116.13;;;3.40;;
8411;SDS011;4243;49.296;11.348;2023-06-10T14:12:22;117.07;;;6.17;;
8411;SDS011;4243;49.296;11.348;2023-06-10T14:14:49;119.20;;;4.20;;
8411;SDS011;4243;49.296;11.348;2023-06-10T14:17:16;118.77;;;3.30;;
8411;SDS011;4243;49.296;11.348;2023-06-10T14:19:44;120.90;;;6.73;;
8411;SDS011;4243;49.296;11.348;2023-06-10T14:22:11;121.30;;;6.27;;
8411;SDS011;4243;49.296;11.348;2023-06-10T14:24:38;119.97;;;3.57;;
8411;SDS011;4243;49.296;11.348;2023-06-10T14:27:06;120.93;;;4.83;;
8411;SDS011;4243;49.296;11.348;2023-06-10T14:29:33;120.90;;;5.07;;
8411;SDS011;4243;49.296;11.348;2023-06-10T14:32:01;120.23;;;3.87;;
8411;SDS011;4243;49.296;11.348;2023-06-10T14:34:34;120.90;;;4.27;;
8411;SDS011;4243;49.296;11.348;2023-06-10T14:37:02;120.43;;;3.83;;
8411;SDS011;4243;49.296;11.348;2023-06-10T14:39:30;120.00;;;3.13;;
8411;SDS011;4243;49.296;11.348;2023-06-10T14:41:58;120.37;;;3.03;;
8411;SDS011;4243;49.296;11.348;2023-06-10T14:44:25;120.00;;;3.77;;
8411;SDS011;4243;49.296;11.348;2023-06-10T14:46:52;121.67;;;5.73;;
8411;SDS011;4243;49.296;11.348;2023-06-10T14:49:19;121.17;;;5.00;;
8411;SDS011;4243;49.296;11.348;2023-06-10T14:51:47;119.90;;;3.90;;
8411;SDS011;4243;49.296;11.348;2023-06-10T14:54:16;118.43;;;3.63;;
8411;SDS011;4243;49.296;11.348;2023-06-10T14:56:43;117.27;;;3.60;;
8411;SDS011;4243;49.296;11.348;2023-06-10T14:59:11;117.67;;;3.77;;
8411;SDS011;4243;49.296;11.348;2023-06-10T15:01:38;116.47;;;4.13;;
8411;SDS011;4243;49.296;11.348;2023-06-10T15:04:06;117.43;;;4.83;;
8411;SDS011;4243;49.296;11.348;2023-06-10T15:06:33;115.97;;;4.17;;
8411;SDS011;4243;49.296;11.348;2023-06-10T15:09:01;116.57;;;3.07;;
8411;SDS011;4243;49.296;11.348;2023-06-10T15:11:28;117.27;;;4.10;;
8411;SDS011;4243;49.296;11.348;2023-06-10T15:13:56;117.07;;;4.60;;
8411;SDS011;4243;49.296;11.348;2023-06-10T15:16:23;117.30;;;5.17;;
8411;SDS011;4243;49.296;11.348;2023-06-10T15:18:51;116.97;;;5.83;;
8411;SDS011;4243;49.296;11.348;2023-06-10T15:21:18;118.23;;;6.10;;
8411;SDS011;4243;49.296;11.348;2023-06-10T15:23:46;118.80;;;6.67;;